createdAt,value
2022-07-26T00:00:08.378Z,953.8390503
2022-07-26T00:01:09.192Z,953.8937378
2022-07-26T00:02:09.846Z,953.9113159
2022-07-26T00:03:10.428Z,953.9335327
2022-07-26T00:04:11.127Z,953.9191284
2022-07-26T00:05:12.036Z,953.9301758
2022-07-26T00:06:13.324Z,953.9743042
2022-07-26T00:07:14.001Z,953.9787598
2022-07-26T00:08:14.674Z,954.0112305
2022-07-26T00:09:15.448Z,953.9813843
2022-07-26T00:10:16.826Z,953.9665527
2022-07-26T00:11:17.921Z,954.0014038
2022-07-26T00:12:48.952Z,953.9884644
2022-07-26T00:13:49.644Z,953.9679565
2022-07-26T00:14:50.871Z,953.9447021
2022-07-26T00:15:51.509Z,954.0026855
2022-07-26T00:16:52.284Z,954.0136719
2022-07-26T00:17:53.649Z,953.9976807
2022-07-26T00:18:54.339Z,953.9871826
2022-07-26T00:19:55.136Z,953.9852905
2022-07-26T00:20:55.781Z,954.0359497
2022-07-26T00:21:56.472Z,954.0340576
2022-07-26T00:22:57.185Z,954.0351563
2022-07-26T00:23:57.906Z,953.9934082
2022-07-26T00:24:58.657Z,954.0267944
2022-07-26T00:25:59.260Z,954.0131226
2022-07-26T00:27:00.660Z,954.0094604
2022-07-26T00:28:01.320Z,953.9927979
2022-07-26T00:29:02.016Z,953.9411011
2022-07-26T00:30:02.715Z,953.9509888
2022-07-26T00:31:03.428Z,953.9671631
2022-07-26T00:32:04.082Z,953.9724731
2022-07-26T00:33:04.731Z,953.9813843
2022-07-26T00:34:05.359Z,954.0064087
2022-07-26T00:35:06.065Z,954.0253296
2022-07-26T00:36:06.727Z,953.9545288
2022-07-26T00:37:08.163Z,953.9465332
2022-07-26T00:38:08.856Z,953.9674072
2022-07-26T00:39:09.963Z,953.9779663
2022-07-26T00:40:10.325Z,953.9598389
2022-07-26T00:41:10.977Z,953.9679565
2022-07-26T00:42:12.339Z,953.9307861
2022-07-26T00:43:13.020Z,953.9099731
2022-07-26T00:44:13.700Z,953.8817139
2022-07-26T00:45:15.380Z,953.9169312
2022-07-26T00:46:16.075Z,953.8867188
2022-07-26T00:47:16.672Z,953.8966675
2022-07-26T00:48:48.160Z,953.8721924
2022-07-26T00:49:49.686Z,953.9134521
2022-07-26T00:50:50.391Z,953.8864136
2022-07-26T00:51:51.014Z,953.9269409
2022-07-26T00:52:51.672Z,953.9035645
2022-07-26T00:53:52.398Z,953.9023438
2022-07-26T00:54:53.044Z,953.9154053
2022-07-26T00:55:53.826Z,953.9078369
2022-07-26T00:56:55.386Z,953.8931274
2022-07-26T00:57:55.863Z,953.9229736
2022-07-26T00:58:56.535Z,953.8933716
2022-07-26T00:59:57.204Z,953.8967285
2022-07-26T01:00:57.962Z,953.861084
2022-07-26T01:01:58.758Z,953.9173584
2022-07-26T01:02:59.293Z,953.9335327
2022-07-26T01:03:59.969Z,953.9378662
2022-07-26T01:05:00.646Z,953.9629517
2022-07-26T01:06:01.358Z,953.953186
2022-07-26T01:07:02.666Z,953.9626465
2022-07-26T01:08:03.366Z,953.9612427
2022-07-26T01:09:04.058Z,953.9662476
2022-07-26T01:10:04.811Z,953.967041
2022-07-26T01:11:06.205Z,953.953064
2022-07-26T01:12:06.886Z,953.9648438
2022-07-26T01:13:07.587Z,954.005127
2022-07-26T01:14:08.544Z,953.9431152
2022-07-26T01:15:08.998Z,953.9476318
2022-07-26T01:16:09.760Z,953.921814
2022-07-26T01:17:11.535Z,953.8943481
2022-07-26T01:18:12.292Z,953.8996582
2022-07-26T01:19:12.965Z,953.9068604
2022-07-26T01:20:13.762Z,953.9173584
2022-07-26T01:21:14.525Z,953.8431396
2022-07-26T01:22:15.712Z,953.8795166
2022-07-26T01:23:16.364Z,953.8146973
2022-07-26T01:24:47.682Z,953.8499756
2022-07-26T01:25:48.725Z,953.8117065
2022-07-26T01:26:49.877Z,953.793457
2022-07-26T01:27:50.542Z,953.7940063
2022-07-26T01:28:51.196Z,953.7366943
2022-07-26T01:29:51.850Z,953.7806396
2022-07-26T01:30:52.547Z,953.8034668
2022-07-26T01:31:53.286Z,953.8175659
2022-07-26T01:32:53.872Z,953.8495483
2022-07-26T01:33:54.529Z,953.8535156
2022-07-26T01:34:55.219Z,953.8615112
2022-07-26T01:35:55.921Z,953.8172607
2022-07-26T01:36:57.389Z,953.8560791
2022-07-26T01:37:58.011Z,953.8318481
2022-07-26T01:38:58.680Z,953.8325195
2022-07-26T01:39:59.355Z,953.8400269
2022-07-26T01:41:00.006Z,953.8461914
2022-07-26T01:42:00.845Z,953.8314209
2022-07-26T01:43:01.854Z,953.8443604
2022-07-26T01:44:02.584Z,953.7973633
2022-07-26T01:45:03.258Z,953.8604736
2022-07-26T01:46:04.065Z,953.8440552
2022-07-26T01:47:05.377Z,953.8549805
2022-07-26T01:48:05.993Z,953.8125
2022-07-26T01:49:06.710Z,953.8201294
2022-07-26T01:50:07.335Z,953.8021851
2022-07-26T01:51:08.021Z,953.8535156
2022-07-26T01:52:08.744Z,953.9385986
2022-07-26T01:53:09.379Z,953.8979492
2022-07-26T01:54:10.568Z,953.8856201
2022-07-26T01:55:10.722Z,953.8937378
2022-07-26T01:56:11.701Z,953.9235229
2022-07-26T01:57:13.219Z,953.9295044
2022-07-26T01:58:13.886Z,953.9196777
2022-07-26T01:59:15.172Z,953.8460693
2022-07-26T02:00:15.921Z,953.8636475
2022-07-26T02:01:47.525Z,953.8803711
2022-07-26T02:02:48.426Z,953.8456421
2022-07-26T02:03:48.706Z,953.867981
2022-07-26T02:04:49.472Z,953.8629761
2022-07-26T02:05:50.253Z,953.8215332
2022-07-26T02:06:51.889Z,953.8654175
2022-07-26T02:07:52.621Z,953.8464966
2022-07-26T02:08:53.326Z,953.8301392
2022-07-26T02:09:54.037Z,953.8587646
2022-07-26T02:10:54.824Z,953.8370361
2022-07-26T02:11:55.650Z,953.8736572
2022-07-26T02:12:56.577Z,953.8731079
2022-07-26T02:13:57.100Z,953.902832
2022-07-26T02:14:57.775Z,953.9220581
2022-07-26T02:15:59.515Z,953.9508057
2022-07-26T02:17:00.442Z,953.9700928
2022-07-26T02:18:02.062Z,953.9743652
2022-07-26T02:19:02.619Z,953.9370117
2022-07-26T02:20:03.307Z,953.9742432
2022-07-26T02:21:04.097Z,953.972168
2022-07-26T02:22:04.926Z,953.9790649
2022-07-26T02:23:05.779Z,953.9550171
2022-07-26T02:24:06.791Z,953.9677124
2022-07-26T02:25:07.072Z,954.0084229
2022-07-26T02:26:07.781Z,953.9945068
2022-07-26T02:27:09.406Z,953.9401855
2022-07-26T02:28:10.203Z,953.9522095
2022-07-26T02:29:10.857Z,953.9568481
2022-07-26T02:30:12.192Z,953.963501
2022-07-26T02:31:15.563Z,953.9671631
2022-07-26T02:32:13.801Z,953.9880981
2022-07-26T02:33:14.794Z,953.9592285
2022-07-26T02:34:15.394Z,953.9537354
2022-07-26T02:35:47.049Z,953.9026489
2022-07-26T02:36:47.854Z,953.934082
2022-07-26T02:37:49.324Z,953.8970337
2022-07-26T02:38:50.088Z,953.8853149
2022-07-26T02:39:50.738Z,953.9055176
2022-07-26T02:40:51.433Z,953.9644775
2022-07-26T02:41:52.223Z,953.9554443
2022-07-26T02:42:53.054Z,953.8961182
2022-07-26T02:43:54.838Z,953.9816895
2022-07-26T02:44:55.477Z,953.9664917
2022-07-26T02:46:00.972Z,953.9765625
2022-07-26T02:46:57.009Z,953.9754639
2022-07-26T02:47:58.297Z,953.9042358
2022-07-26T02:48:59.205Z,953.9678345
2022-07-26T02:50:00.404Z,953.973877
2022-07-26T02:51:01.065Z,953.9682007
2022-07-26T02:52:01.764Z,953.9643555
2022-07-26T02:53:02.563Z,953.9390869
2022-07-26T02:54:03.406Z,953.9490356
2022-07-26T02:55:04.049Z,953.9558716
2022-07-26T02:56:04.711Z,953.9556274
2022-07-26T02:57:05.537Z,953.9367676
2022-07-26T02:58:07.322Z,953.9210815
2022-07-26T02:59:08.390Z,953.9257813
2022-07-26T03:00:08.857Z,953.9190674
2022-07-26T03:01:09.577Z,953.8826294
2022-07-26T03:02:10.366Z,953.8986206
2022-07-26T03:03:11.597Z,953.9391479
2022-07-26T03:04:12.381Z,953.9268799
2022-07-26T03:05:13.082Z,953.8878174
2022-07-26T03:06:13.757Z,953.9046631
2022-07-26T03:07:15.429Z,953.9448242
2022-07-26T03:08:46.598Z,953.9261475
2022-07-26T03:09:47.528Z,953.9503174
2022-07-26T03:10:48.069Z,953.9536133
2022-07-26T03:11:48.758Z,953.9407959
2022-07-26T03:12:50.253Z,953.9070435
2022-07-26T03:13:51.044Z,953.9117432
2022-07-26T03:14:51.908Z,953.9012451
2022-07-26T03:15:53.430Z,953.9395142
2022-07-26T03:16:54.070Z,953.9202881
2022-07-26T03:17:55.846Z,953.9089966
2022-07-26T03:18:56.653Z,953.9134521
2022-07-26T03:19:57.478Z,953.9145508
2022-07-26T03:20:58.193Z,953.9246826
2022-07-26T03:21:58.873Z,953.9729004
2022-07-26T03:23:00.422Z,953.9537354
2022-07-26T03:24:01.244Z,953.9539795
2022-07-26T03:25:02.079Z,953.9804688
2022-07-26T03:26:02.743Z,954.0193481
2022-07-26T03:27:03.407Z,954.0412598
2022-07-26T03:28:04.750Z,954.0114746
2022-07-26T03:29:05.548Z,954.0510864
2022-07-26T03:30:06.372Z,954.0706177
2022-07-26T03:31:07.206Z,954.1087646
2022-07-26T03:32:07.879Z,954.1126709
2022-07-26T03:33:08.561Z,954.140564
2022-07-26T03:34:10.813Z,954.1265869
2022-07-26T03:35:11.676Z,954.1315918
2022-07-26T03:36:15.488Z,954.2078247
2022-07-26T03:37:13.871Z,954.2182617
2022-07-26T03:38:14.580Z,954.2640381
2022-07-26T03:39:46.744Z,954.2686157
2022-07-26T03:40:47.539Z,954.2717285
2022-07-26T03:41:48.180Z,954.3276367
2022-07-26T03:42:48.870Z,954.3084106
2022-07-26T03:43:50.278Z,954.3370361
2022-07-26T03:44:51.158Z,954.3240356
2022-07-26T03:45:54.248Z,954.2711182
2022-07-26T03:46:52.753Z,954.2932739
2022-07-26T03:47:54.373Z,954.3251343
2022-07-26T03:48:55.293Z,954.3181763
2022-07-26T03:49:56.052Z,954.3356323
2022-07-26T03:50:56.900Z,954.3443604
2022-07-26T03:51:57.609Z,954.3515625
2022-07-26T03:52:58.881Z,954.3453369
2022-07-26T03:53:59.616Z,954.338623
2022-07-26T03:55:00.389Z,954.3239136
2022-07-26T03:56:01.226Z,954.3104858
2022-07-26T03:57:01.950Z,954.3251343
2022-07-26T03:58:03.195Z,954.3340454
2022-07-26T03:59:03.904Z,954.3312378
2022-07-26T04:00:04.757Z,954.3476563
2022-07-26T04:01:06.544Z,954.3456421
2022-07-26T04:02:07.171Z,954.3462524
2022-07-26T04:03:07.873Z,954.3396606
2022-07-26T04:04:09.581Z,954.3136597
2022-07-26T04:05:10.227Z,954.3545532
2022-07-26T04:06:11.277Z,954.305542
2022-07-26T04:07:12.209Z,954.2629395
2022-07-26T04:08:13.742Z,954.2598267
2022-07-26T04:09:14.495Z,954.2645874
2022-07-26T04:10:45.803Z,954.2678833
2022-07-26T04:11:46.704Z,954.265625
2022-07-26T04:12:47.352Z,954.2642212
2022-07-26T04:13:48.884Z,954.258667
2022-07-26T04:14:49.620Z,954.2862549
2022-07-26T04:15:50.423Z,954.2754517
2022-07-26T04:16:51.248Z,954.2453613
2022-07-26T04:17:52.906Z,954.2628174
2022-07-26T04:18:53.582Z,954.2415771
2022-07-26T04:19:54.416Z,954.2528076
2022-07-26T04:20:55.243Z,954.2349854
2022-07-26T04:21:56.098Z,954.2401733
2022-07-26T04:22:56.781Z,954.241272
2022-07-26T04:23:58.406Z,954.2658081
2022-07-26T04:24:59.191Z,954.2617188
2022-07-26T04:25:59.998Z,954.2826538
2022-07-26T04:27:00.801Z,954.265564
2022-07-26T04:28:02.402Z,954.3192749
2022-07-26T04:29:03.094Z,954.3026733
2022-07-26T04:30:03.829Z,954.2762451
2022-07-26T04:31:04.680Z,954.3175049
2022-07-26T04:32:05.628Z,954.3304443
2022-07-26T04:33:06.186Z,954.3231201
2022-07-26T04:34:07.129Z,954.3250122
2022-07-26T04:35:08.458Z,954.2765503
2022-07-26T04:36:09.303Z,954.2658081
2022-07-26T04:37:10.181Z,954.2634888
2022-07-26T04:38:11.742Z,954.2824097
2022-07-26T04:39:12.505Z,954.277832
2022-07-26T04:40:13.184Z,954.2473145
2022-07-26T04:41:13.940Z,954.248291
2022-07-26T04:42:45.547Z,954.229126
2022-07-26T04:43:46.891Z,954.2341919
2022-07-26T04:44:47.633Z,954.2597046
2022-07-26T04:45:48.447Z,954.2251587
2022-07-26T04:46:49.132Z,954.2573242
2022-07-26T04:47:50.554Z,954.2623291
2022-07-26T04:48:51.289Z,954.2845459
2022-07-26T04:49:53.416Z,954.3117065
2022-07-26T04:50:54.217Z,954.2904053
2022-07-26T04:51:57.569Z,954.2415771
2022-07-26T04:52:55.909Z,954.2522583
2022-07-26T04:53:57.416Z,954.2793579
2022-07-26T04:54:58.102Z,954.2651367
2022-07-26T04:55:58.864Z,954.2248535
2022-07-26T04:56:59.721Z,954.2253418
2022-07-26T04:58:01.504Z,954.2416992
2022-07-26T04:59:02.185Z,954.2455444
2022-07-26T05:00:20.823Z,954.2556152
2022-07-26T05:01:10.979Z,954.2637329
2022-07-26T05:02:05.368Z,954.2686157
2022-07-26T05:03:06.215Z,954.2799072
2022-07-26T05:04:07.148Z,954.2510986
2022-07-26T05:05:07.574Z,954.2684937
2022-07-26T05:06:09.312Z,954.2832031
2022-07-26T05:07:10.165Z,954.2468872
2022-07-26T05:08:11.971Z,954.2435913
2022-07-26T05:09:12.706Z,954.1972046
2022-07-26T05:10:13.396Z,954.2615356
2022-07-26T05:11:44.984Z,954.3098145
2022-07-26T05:12:45.807Z,954.3337402
2022-07-26T05:13:47.624Z,954.3361206
2022-07-26T05:14:48.120Z,954.3566895
2022-07-26T05:15:48.810Z,954.3096924
2022-07-26T05:16:49.564Z,954.2789307
2022-07-26T05:17:50.879Z,954.3036499
2022-07-26T05:18:51.743Z,954.2890015
2022-07-26T05:19:54.460Z,954.2525024
2022-07-26T05:20:54.028Z,954.2739258
2022-07-26T05:21:54.845Z,954.2820435
2022-07-26T05:22:56.352Z,954.2737427
2022-07-26T05:23:57.227Z,954.2869263
2022-07-26T05:24:58.005Z,954.315918
2022-07-26T05:25:58.737Z,954.28125
2022-07-26T05:26:59.541Z,954.2398682
2022-07-26T05:28:00.354Z,954.2332764
2022-07-26T05:29:01.892Z,954.2438965
2022-07-26T05:30:02.592Z,954.2609253
2022-07-26T05:31:03.447Z,954.2954712
2022-07-26T05:32:04.112Z,954.2863159
2022-07-26T05:33:04.922Z,954.2921753
2022-07-26T05:34:06.079Z,954.3099976
2022-07-26T05:35:07.532Z,954.257019
2022-07-26T05:36:08.085Z,954.274231
2022-07-26T05:37:08.810Z,954.2351685
2022-07-26T05:38:09.654Z,954.2218018
2022-07-26T05:39:15.724Z,954.2258301
2022-07-26T05:40:12.407Z,954.2363892
2022-07-26T05:41:13.071Z,954.2867432
2022-07-26T05:42:45.222Z,954.2893066
2022-07-26T05:43:46.080Z,954.2940674
2022-07-26T05:44:47.487Z,954.3462524
2022-07-26T05:45:48.243Z,954.3013916
2022-07-26T05:46:48.859Z,954.3187256
2022-07-26T05:47:49.678Z,954.3344727
2022-07-26T05:48:51.409Z,954.352478
2022-07-26T05:49:52.229Z,954.3234253
2022-07-26T05:50:53.770Z,954.321228
2022-07-26T05:51:59.407Z,954.3359375
2022-07-26T05:52:55.311Z,954.3153687
2022-07-26T05:53:56.169Z,954.2954102
2022-07-26T05:54:56.987Z,954.2892456
2022-07-26T05:55:57.662Z,954.3005981
2022-07-26T05:56:58.346Z,954.2854614
2022-07-26T05:57:59.151Z,954.3041992
2022-07-26T05:59:00.901Z,954.2776489
2022-07-26T06:00:01.760Z,954.3244629
2022-07-26T06:01:02.395Z,954.3457642
2022-07-26T06:02:03.164Z,954.309082
2022-07-26T06:03:03.927Z,954.3154907
2022-07-26T06:04:04.833Z,954.3103027
2022-07-26T06:05:06.412Z,954.2976685
2022-07-26T06:06:07.113Z,954.3165894
2022-07-26T06:07:08.435Z,954.2750854
2022-07-26T06:08:09.242Z,954.3251343
2022-07-26T06:09:10.884Z,954.3778687
2022-07-26T06:10:11.822Z,954.3239136
2022-07-26T06:11:12.496Z,954.319519
2022-07-26T06:12:13.640Z,954.3290405
2022-07-26T06:13:44.835Z,954.3009644
2022-07-26T06:14:46.395Z,954.3165894
2022-07-26T06:15:47.147Z,954.321167
2022-07-26T06:16:47.862Z,954.3120117
2022-07-26T06:17:48.499Z,954.3244629
2022-07-26T06:18:49.978Z,954.3250122
2022-07-26T06:19:50.817Z,954.3510742
2022-07-26T06:20:51.733Z,954.3841553
2022-07-26T06:21:52.270Z,954.4020996
2022-07-26T06:22:53.002Z,954.4095459
2022-07-26T06:23:53.785Z,954.4154663
2022-07-26T06:24:55.424Z,954.4419556
2022-07-26T06:25:56.213Z,954.374939
2022-07-26T06:27:04.803Z,954.4260864
2022-07-26T06:27:57.507Z,954.4208374
2022-07-26T06:28:58.977Z,954.4265747
2022-07-26T06:29:59.791Z,954.3956909
2022-07-26T06:31:00.716Z,954.4032593
2022-07-26T06:32:02.011Z,954.4223633
2022-07-26T06:33:02.603Z,954.4301758
2022-07-26T06:34:03.389Z,954.4087524
2022-07-26T06:35:04.205Z,954.4324341
2022-07-26T06:36:05.260Z,954.4317017
2022-07-26T06:37:05.728Z,954.4334106
2022-07-26T06:38:06.466Z,954.3762207
2022-07-26T06:39:07.903Z,954.4151611
2022-07-26T06:40:08.755Z,954.3972168
2022-07-26T06:41:09.620Z,954.3886719
2022-07-26T06:42:10.308Z,954.3629761
2022-07-26T06:43:11.094Z,954.3998413
2022-07-26T06:44:12.401Z,954.4017334
2022-07-26T06:45:44.386Z,954.4369507
2022-07-26T06:46:45.127Z,954.4273682
2022-07-26T06:47:45.792Z,954.4701538
2022-07-26T06:48:53.142Z,954.4418945
2022-07-26T06:49:48.386Z,954.4328003
2022-07-26T06:50:49.197Z,954.4308472
2022-07-26T06:51:50.023Z,954.4291992
2022-07-26T06:52:50.696Z,954.4160767
2022-07-26T06:53:51.435Z,954.3920898
2022-07-26T06:54:52.971Z,954.4012451
2022-07-26T06:55:53.780Z,954.4212646
2022-07-26T06:56:54.782Z,954.4222412
2022-07-26T06:57:55.361Z,954.4489136
2022-07-26T06:58:56.991Z,954.4365845
2022-07-26T06:59:57.789Z,954.4143677
2022-07-26T07:00:58.649Z,954.4176636
2022-07-26T07:02:00.529Z,954.4402466
2022-07-26T07:03:00.763Z,954.4475708
2022-07-26T07:04:01.437Z,954.4657593
2022-07-26T07:05:02.306Z,954.4538574
2022-07-26T07:06:03.080Z,954.4470215
2022-07-26T07:07:05.105Z,954.4558105
2022-07-26T07:08:05.052Z,954.4159546
2022-07-26T07:09:07.773Z,954.3794556
2022-07-26T07:10:07.342Z,954.4032593
2022-07-26T07:11:08.933Z,954.3982544
2022-07-26T07:12:10.713Z,954.404541
2022-07-26T07:13:10.414Z,954.3897095
2022-07-26T07:14:11.683Z,954.3782959
2022-07-26T07:15:43.621Z,954.3591309
2022-07-26T07:16:44.622Z,954.3970947
2022-07-26T07:17:45.272Z,954.3431396
2022-07-26T07:18:45.890Z,954.3634644
2022-07-26T07:19:47.356Z,954.3640747
2022-07-26T07:20:48.199Z,954.3446655
2022-07-26T07:21:49.012Z,954.3601685
2022-07-26T07:22:49.778Z,954.4003296
2022-07-26T07:23:50.460Z,954.3712769
2022-07-26T07:24:52.011Z,954.3874512
2022-07-26T07:25:52.830Z,954.3791504
2022-07-26T07:26:53.696Z,954.3638916
2022-07-26T07:27:54.457Z,954.4230347
2022-07-26T07:28:55.120Z,954.3355713
2022-07-26T07:29:56.895Z,954.3598633
2022-07-26T07:30:57.740Z,954.3724365
2022-07-26T07:31:58.591Z,954.3746948
2022-07-26T07:32:59.406Z,954.3626709
2022-07-26T07:34:00.978Z,954.373291
2022-07-26T07:35:01.719Z,954.3879395
2022-07-26T07:36:03.391Z,954.4074707
2022-07-26T07:37:04.221Z,954.3884277
2022-07-26T07:38:04.998Z,954.4032593
2022-07-26T07:39:08.245Z,954.3764648
2022-07-26T07:40:07.194Z,954.3894043
2022-07-26T07:41:08.013Z,954.3378296
2022-07-26T07:42:08.887Z,954.2945557
2022-07-26T07:43:09.671Z,954.3048706
2022-07-26T07:44:10.684Z,954.2888184
2022-07-26T07:45:11.988Z,954.2703857
2022-07-26T07:46:43.325Z,954.3248291
2022-07-26T07:47:44.996Z,954.2982788
2022-07-26T07:48:47.719Z,954.2854004
2022-07-26T07:49:47.284Z,954.2676392
2022-07-26T07:50:48.156Z,954.2832642
2022-07-26T07:51:48.944Z,954.2803345
2022-07-26T07:52:49.751Z,954.236084
2022-07-26T07:53:56.640Z,954.2366333
2022-07-26T07:54:51.941Z,954.2270508
2022-07-26T07:55:55.340Z,954.2296143
2022-07-26T07:56:53.582Z,954.2271729
2022-07-26T07:57:54.397Z,954.1560059
2022-07-26T07:58:55.130Z,954.2362671
2022-07-26T07:59:56.814Z,954.2260742
2022-07-26T08:00:57.632Z,954.2634277
2022-07-26T08:01:58.449Z,954.2525024
2022-07-26T08:02:59.253Z,954.225647
2022-07-26T08:04:00.227Z,954.2232666
2022-07-26T08:05:11.304Z,954.2237549
2022-07-26T08:06:02.427Z,954.2164307
2022-07-26T08:07:03.260Z,954.2064209
2022-07-26T08:08:04.065Z,954.2098389
2022-07-26T08:09:05.441Z,954.1629639
2022-07-26T08:10:06.333Z,954.1867065
2022-07-26T08:11:07.909Z,954.2163086
2022-07-26T08:12:07.957Z,954.2062988
2022-07-26T08:13:09.468Z,954.2177124
2022-07-26T08:14:10.220Z,954.2474976
2022-07-26T08:15:10.869Z,954.2597656
2022-07-26T08:16:11.918Z,954.2758789
2022-07-26T08:17:44.007Z,954.2999268
2022-07-26T08:18:56.298Z,954.3029175
2022-07-26T08:19:46.482Z,954.3353882
2022-07-26T08:20:47.148Z,954.3016357
2022-07-26T08:21:47.968Z,954.2796631
2022-07-26T08:22:48.884Z,954.3214111
2022-07-26T08:23:49.687Z,954.2828979
2022-07-26T08:24:50.496Z,954.2741699
2022-07-26T08:25:57.107Z,954.2960815
2022-07-26T08:26:52.637Z,954.3186646
2022-07-26T08:28:03.601Z,954.2867432
2022-07-26T08:28:59.983Z,954.3120117
2022-07-26T08:29:55.848Z,954.2645874
2022-07-26T08:30:56.588Z,954.291748
2022-07-26T08:31:57.316Z,954.2603149
2022-07-26T08:32:58.104Z,954.3015137
2022-07-26T08:33:58.927Z,954.328064
2022-07-26T08:35:17.297Z,954.3228149
2022-07-26T08:36:00.959Z,954.3256836
2022-07-26T08:37:16.513Z,954.2848511
2022-07-26T08:38:02.638Z,954.2820435
2022-07-26T08:39:03.346Z,954.3308105
2022-07-26T08:40:04.836Z,954.2974854
2022-07-26T08:41:05.478Z,954.3140869
2022-07-26T08:42:06.291Z,954.3336182
2022-07-26T08:43:07.103Z,954.3079834
2022-07-26T08:44:07.920Z,954.3027954
2022-07-26T08:45:09.514Z,954.2893677
2022-07-26T08:46:11.611Z,954.3329468
2022-07-26T08:47:11.035Z,954.303894
2022-07-26T08:48:42.488Z,954.3144531
2022-07-26T08:49:43.995Z,954.3325195
2022-07-26T08:50:44.745Z,954.3151855
2022-07-26T08:51:45.359Z,954.2976685
2022-07-26T08:52:46.208Z,954.2938843
2022-07-26T08:53:47.068Z,954.3004761
2022-07-26T08:54:47.866Z,954.3143921
2022-07-26T08:56:06.349Z,954.3502197
2022-07-26T08:56:49.274Z,954.3474121
2022-07-26T08:57:50.131Z,954.3312378
2022-07-26T08:58:50.953Z,954.3621826
2022-07-26T08:59:52.423Z,954.3757324
2022-07-26T09:00:53.858Z,954.3688354
2022-07-26T09:01:54.567Z,954.3656006
2022-07-26T09:02:55.380Z,954.34198
2022-07-26T09:03:56.273Z,954.3735962
2022-07-26T09:04:58.003Z,954.3389282
2022-07-26T09:05:58.781Z,954.3461914
2022-07-26T09:06:59.446Z,954.3430176
2022-07-26T09:08:00.925Z,954.3407593
2022-07-26T09:09:01.729Z,954.3295288
2022-07-26T09:10:03.270Z,954.3439941
2022-07-26T09:11:04.850Z,954.3426514
2022-07-26T09:12:05.588Z,954.3303223
2022-07-26T09:13:06.375Z,954.3294678
2022-07-26T09:14:07.195Z,954.3306885
2022-07-26T09:15:08.457Z,954.2976074
2022-07-26T09:16:09.379Z,954.2826538
2022-07-26T09:17:09.874Z,954.2885742
2022-07-26T09:18:10.712Z,954.2987671
2022-07-26T09:19:42.966Z,954.2792358
2022-07-26T09:20:43.713Z,954.2993774
2022-07-26T09:21:44.414Z,954.2876587
2022-07-26T09:22:45.166Z,954.3239136
2022-07-26T09:23:45.973Z,954.3449707
2022-07-26T09:24:46.734Z,954.3404541
2022-07-26T09:25:47.510Z,954.3220215
2022-07-26T09:26:48.235Z,954.3612671
2022-07-26T09:27:48.979Z,954.3496704
2022-07-26T09:28:49.794Z,954.3447876
2022-07-26T09:29:51.521Z,954.3431396
2022-07-26T09:30:52.229Z,954.3398438
2022-07-26T09:31:53.119Z,954.3604126
2022-07-26T09:32:57.009Z,954.3375244
2022-07-26T09:33:54.592Z,954.2901611
2022-07-26T09:34:58.625Z,954.3277588
2022-07-26T09:35:56.168Z,954.3157959
2022-07-26T09:36:56.931Z,954.3352051
2022-07-26T09:37:57.716Z,954.3156128
2022-07-26T09:38:58.511Z,954.3051758
2022-07-26T09:40:00.003Z,954.3255615
2022-07-26T09:41:00.667Z,954.2729492
2022-07-26T09:42:26.133Z,954.2763062
2022-07-26T09:43:02.229Z,954.3009644
2022-07-26T09:44:03.038Z,954.3248291
2022-07-26T09:45:04.474Z,954.3240356
2022-07-26T09:46:05.376Z,954.3242188
2022-07-26T09:47:05.886Z,954.3329468
2022-07-26T09:48:06.660Z,954.3440552
2022-07-26T09:49:10.470Z,954.3406372
2022-07-26T09:50:11.351Z,954.2949829
2022-07-26T09:51:09.733Z,954.3297119
2022-07-26T09:52:10.894Z,954.2756348
2022-07-26T09:53:42.167Z,954.2396851
2022-07-26T09:54:42.958Z,954.253418
2022-07-26T09:55:45.055Z,954.2423706
2022-07-26T09:56:44.388Z,954.2620239
2022-07-26T09:57:45.249Z,954.2776489
2022-07-26T09:58:46.010Z,954.2319336
2022-07-26T09:59:46.798Z,954.2553101
2022-07-26T10:00:48.355Z,954.2525024
2022-07-26T10:01:49.050Z,954.2765503
2022-07-26T10:02:49.848Z,954.2384644
2022-07-26T10:03:50.648Z,954.3269653
2022-07-26T10:04:51.472Z,954.3081055
2022-07-26T10:05:52.138Z,954.3203735
2022-07-26T10:06:52.792Z,954.3249512
2022-07-26T10:07:53.574Z,954.2941895
2022-07-26T10:08:54.453Z,954.2888794
2022-07-26T10:09:56.022Z,954.2848511
2022-07-26T10:10:56.807Z,954.2848511
2022-07-26T10:11:58.307Z,954.2865601
2022-07-26T10:12:59.094Z,954.2573242
2022-07-26T10:13:59.871Z,954.2999268
2022-07-26T10:15:01.554Z,954.2752075
2022-07-26T10:16:02.342Z,954.2828979
2022-07-26T10:17:02.981Z,954.2514038
2022-07-26T10:18:03.776Z,954.3165894
2022-07-26T10:19:05.392Z,954.2208862
2022-07-26T10:20:10.633Z,954.2262573
2022-07-26T10:21:07.741Z,954.2262573
2022-07-26T10:22:08.401Z,954.2348633
2022-07-26T10:23:09.248Z,954.2203369
2022-07-26T10:24:10.253Z,954.2651367
2022-07-26T10:25:41.190Z,954.2697144
2022-07-26T10:26:43.145Z,954.2578125
2022-07-26T10:27:42.843Z,954.3029175
2022-07-26T10:28:43.642Z,954.2668457
2022-07-26T10:29:44.398Z,954.1932983
2022-07-26T10:30:45.891Z,954.2437744
2022-07-26T10:31:46.647Z,954.300293
2022-07-26T10:32:47.324Z,954.2331543
2022-07-26T10:33:48.180Z,954.2237549
2022-07-26T10:34:48.944Z,954.2421875
2022-07-26T10:35:49.709Z,954.2597046
2022-07-26T10:36:55.824Z,954.2184448
2022-07-26T10:37:51.076Z,954.2369385
2022-07-26T10:38:51.902Z,954.1612549
2022-07-26T10:39:52.669Z,954.1729126
2022-07-26T10:40:54.398Z,954.1785278
2022-07-26T10:41:55.063Z,954.1311035
2022-07-26T10:42:55.803Z,954.1358643
2022-07-26T10:43:57.493Z,954.1358032
2022-07-26T10:44:58.237Z,954.1036987
2022-07-26T10:45:59.043Z,954.0728149
2022-07-26T10:46:59.688Z,954.1130981
2022-07-26T10:48:00.338Z,954.0708008
2022-07-26T10:49:02.005Z,954.1140747
2022-07-26T10:50:02.673Z,954.1207886
2022-07-26T10:51:06.386Z,954.1218872
2022-07-26T10:52:05.049Z,954.0772705
2022-07-26T10:53:05.775Z,954.0928345
2022-07-26T10:54:06.834Z,954.1146851
2022-07-26T10:55:07.374Z,954.0806274
2022-07-26T10:56:08.105Z,954.0737305
2022-07-26T10:57:08.775Z,954.088623
2022-07-26T10:58:09.444Z,954.1098633
2022-07-26T10:59:55.228Z,954.1027222
2022-07-26T11:00:42.526Z,954.0765381
2022-07-26T11:01:43.346Z,954.0730591
2022-07-26T11:02:44.032Z,954.053894
2022-07-26T11:03:44.703Z,954.0045166
2022-07-26T11:04:46.082Z,953.9978027
2022-07-26T11:05:46.823Z,953.9833374
2022-07-26T11:06:47.493Z,953.923584
2022-07-26T11:07:48.868Z,953.918457
2022-07-26T11:08:49.670Z,953.9244385